Terminal Aerodrome Forecast
Issued by NWS

Home | Current Version | Previous Version | Text Only | Print | Product List | Glossary Off
Versions: 1 2 3 4 5 6 7 8 9 10 11 12 13 14 15 16 17 18 19 20 21 22 23 24 25 26 27 28 29 30 31 32 33

000
FTUS43 KLOT 121100
TAFDPA
TAF
KDPA 121124Z 1212/1312 36010KT P6SM SCT025 BKN035
     FM121600 02011KT P6SM VCSH SCT020 BKN040
     FM122000 35011KT P6SM VCSH SCT020 BKN030
     FM130000 34011KT 6SM -RA SCT007 OVC012
     FM130700 33010KT P6SM SCT012 BKN035=

USA.gov is the U.S. government's official web portal to all federal, state and local government web resources and services.